sensor_id;sensor_type;location;lat;lon;timestamp;temperature;humidity
31113;DHT22;17763;48.730;9.136;2023-02-08T00:00:50;-0.60;81.30
31113;DHT22;17763;48.730;9.136;2023-02-08T00:03:18;-0.60;81.20
31113;DHT22;17763;48.730;9.136;2023-02-08T00:05:44;-0.60;81.00
31113;DHT22;17763;48.730;9.136;2023-02-08T00:08:09;-0.60;80.90
31113;DHT22;17763;48.730;9.136;2023-02-08T00:10:35;-0.60;81.00
31113;DHT22;17763;48.730;9.136;2023-02-08T00:13:01;-0.70;80.90
31113;DHT22;17763;48.730;9.136;2023-02-08T00:15:27;-0.70;80.80
31113;DHT22;17763;48.730;9.136;2023-02-08T00:17:52;-0.60;80.70
31113;DHT22;17763;48.730;9.136;2023-02-08T00:20:21;-0.70;80.30
31113;DHT22;17763;48.730;9.136;2023-02-08T00:22:46;-0.70;79.90
31113;DHT22;17763;48.730;9.136;2023-02-08T00:25:12;-0.70;79.70
31113;DHT22;17763;48.730;9.136;2023-02-08T00:27:38;-0.70;79.40
31113;DHT22;17763;48.730;9.136;2023-02-08T00:30:07;-0.70;79.10
31113;DHT22;17763;48.730;9.136;2023-02-08T00:32:33;-0.70;78.70
31113;DHT22;17763;48.730;9.136;2023-02-08T00:34:58;-0.70;78.50
31113;DHT22;17763;48.730;9.136;2023-02-08T00:37:24;-0.70;78.50
31113;DHT22;17763;48.730;9.136;2023-02-08T00:39:50;-0.70;78.50
31113;DHT22;17763;48.730;9.136;2023-02-08T00:42:16;-0.70;78.30
31113;DHT22;17763;48.730;9.136;2023-02-08T00:44:42;-0.70;78.20
31113;DHT22;17763;48.730;9.136;2023-02-08T00:47:07;-0.70;78.40
31113;DHT22;17763;48.730;9.136;2023-02-08T00:49:33;-0.70;78.10
31113;DHT22;17763;48.730;9.136;2023-02-08T00:51:59;-0.70;77.80
31113;DHT22;17763;48.730;9.136;2023-02-08T00:54:27;-0.70;77.70
31113;DHT22;17763;48.730;9.136;2023-02-08T00:56:53;-0.70;77.50
31113;DHT22;17763;48.730;9.136;2023-02-08T00:59:19;-0.70;77.40
31113;DHT22;17763;48.730;9.136;2023-02-08T01:01:47;-0.70;77.50
31113;DHT22;17763;48.730;9.136;2023-02-08T01:04:14;-0.70;77.10
31113;DHT22;17763;48.730;9.136;2023-02-08T01:06:39;-0.70;76.70
31113;DHT22;17763;48.730;9.136;2023-02-08T01:09:06;-0.70;76.50
31113;DHT22;17763;48.730;9.136;2023-02-08T01:11:32;-0.60;76.60
31113;DHT22;17763;48.730;9.136;2023-02-08T01:14:01;-0.60;76.40
31113;DHT22;17763;48.730;9.136;2023-02-08T01:16:31;-0.60;75.90
31113;DHT22;17763;48.730;9.136;2023-02-08T01:18:58;-0.70;75.40
31113;DHT22;17763;48.730;9.136;2023-02-08T01:21:28;-0.70;75.40
31113;DHT22;17763;48.730;9.136;2023-02-08T01:23:56;-0.70;75.80
31113;DHT22;17763;48.730;9.136;2023-02-08T01:26:23;-0.70;75.90
31113;DHT22;17763;48.730;9.136;2023-02-08T01:28:51;-0.80;76.40
31113;DHT22;17763;48.730;9.136;2023-02-08T01:31:20;-0.80;77.00
31113;DHT22;17763;48.730;9.136;2023-02-08T01:33:47;-0.70;78.00
31113;DHT22;17763;48.730;9.136;2023-02-08T01:36:13;-0.80;78.60
31113;DHT22;17763;48.730;9.136;2023-02-08T01:38:42;-0.70;79.30
31113;DHT22;17763;48.730;9.136;2023-02-08T01:41:14;-0.70;80.30
31113;DHT22;17763;48.730;9.136;2023-02-08T01:46:44;-0.80;81.70
31113;DHT22;17763;48.730;9.136;2023-02-08T01:49:20;-0.90;82.60
31113;DHT22;17763;48.730;9.136;2023-02-08T01:51:52;-1.00;83.70
31113;DHT22;17763;48.730;9.136;2023-02-08T01:54:23;-1.10;84.40
31113;DHT22;17763;48.730;9.136;2023-02-08T01:56:51;-1.20;85.10
31113;DHT22;17763;48.730;9.136;2023-02-08T01:59:22;-1.20;85.90
31113;DHT22;17763;48.730;9.136;2023-02-08T02:01:52;-1.40;86.90
31113;DHT22;17763;48.730;9.136;2023-02-08T02:04:22;-1.40;87.10
31113;DHT22;17763;48.730;9.136;2023-02-08T02:06:51;-1.50;87.70
31113;DHT22;17763;48.730;9.136;2023-02-08T02:11:51;-1.60;88.50
31113;DHT22;17763;48.730;9.136;2023-02-08T02:14:20;-1.70;88.60
31113;DHT22;17763;48.730;9.136;2023-02-08T02:16:46;-1.70;88.90
31113;DHT22;17763;48.730;9.136;2023-02-08T02:19:36;-1.70;88.90
31113;DHT22;17763;48.730;9.136;2023-02-08T02:22:29;-1.80;89.30
31113;DHT22;17763;48.730;9.136;2023-02-08T02:41:52;-1.80;89.50
31113;DHT22;17763;48.730;9.136;2023-02-08T02:45:03;-1.80;89.50
31113;DHT22;17763;48.730;9.136;2023-02-08T02:47:48;-1.70;89.20
31113;DHT22;17763;48.730;9.136;2023-02-08T02:53:11;-1.60;88.30
31113;DHT22;17763;48.730;9.136;2023-02-08T02:55:46;-1.50;87.10
31113;DHT22;17763;48.730;9.136;2023-02-08T02:58:17;-1.50;86.90
31113;DHT22;17763;48.730;9.136;2023-02-08T03:00:54;-1.50;86.90
31113;DHT22;17763;48.730;9.136;2023-02-08T03:03:23;-1.40;87.00
31113;DHT22;17763;48.730;9.136;2023-02-08T03:05:50;-1.40;86.60
31113;DHT22;17763;48.730;9.136;2023-02-08T03:11:19;-1.30;87.20
31113;DHT22;17763;48.730;9.136;2023-02-08T03:17:07;-1.20;86.90
31113;DHT22;17763;48.730;9.136;2023-02-08T03:22:14;-1.20;87.10
31113;DHT22;17763;48.730;9.136;2023-02-08T03:24:51;-1.20;87.00
31113;DHT22;17763;48.730;9.136;2023-02-08T03:30:10;-1.30;86.40
31113;DHT22;17763;48.730;9.136;2023-02-08T03:32:56;-1.30;86.40
31113;DHT22;17763;48.730;9.136;2023-02-08T03:38:08;-1.30;85.90
31113;DHT22;17763;48.730;9.136;2023-02-08T03:40:42;-1.40;85.30
31113;DHT22;17763;48.730;9.136;2023-02-08T03:43:27;-1.40;84.70
31113;DHT22;17763;48.730;9.136;2023-02-08T03:46:13;-1.40;84.50
31113;DHT22;17763;48.730;9.136;2023-02-08T03:48:45;-1.50;84.10
31113;DHT22;17763;48.730;9.136;2023-02-08T03:51:13;-1.50;84.10
31113;DHT22;17763;48.730;9.136;2023-02-08T03:53:42;-1.60;84.10
31113;DHT22;17763;48.730;9.136;2023-02-08T03:56:27;-1.60;83.60
31113;DHT22;17763;48.730;9.136;2023-02-08T03:59:02;-1.70;83.60
31113;DHT22;17763;48.730;9.136;2023-02-08T04:01:32;-1.70;83.60
31113;DHT22;17763;48.730;9.136;2023-02-08T04:04:01;-1.80;83.40
31113;DHT22;17763;48.730;9.136;2023-02-08T04:06:27;-1.70;83.70
31113;DHT22;17763;48.730;9.136;2023-02-08T04:08:53;-1.70;83.80
31113;DHT22;17763;48.730;9.136;2023-02-08T04:11:18;-1.70;84.10
31113;DHT22;17763;48.730;9.136;2023-02-08T04:13:44;-1.80;84.10
31113;DHT22;17763;48.730;9.136;2023-02-08T04:16:11;-1.80;84.20
31113;DHT22;17763;48.730;9.136;2023-02-08T04:18:37;-1.70;84.20
31113;DHT22;17763;48.730;9.136;2023-02-08T04:21:03;-1.80;83.60
31113;DHT22;17763;48.730;9.136;2023-02-08T04:23:28;-1.80;83.60
31113;DHT22;17763;48.730;9.136;2023-02-08T04:25:58;-1.80;84.20
31113;DHT22;17763;48.730;9.136;2023-02-08T04:28:23;-1.80;84.70
31113;DHT22;17763;48.730;9.136;2023-02-08T04:30:49;-1.80;85.30
31113;DHT22;17763;48.730;9.136;2023-02-08T04:33:15;-1.70;86.30
31113;DHT22;17763;48.730;9.136;2023-02-08T04:35:41;-1.90;87.10
31113;DHT22;17763;48.730;9.136;2023-02-08T04:38:07;-1.90;88.00
31113;DHT22;17763;48.730;9.136;2023-02-08T04:40:36;-2.00;88.70
31113;DHT22;17763;48.730;9.136;2023-02-08T04:43:01;-2.10;89.90
31113;DHT22;17763;48.730;9.136;2023-02-08T04:45:27;-2.20;89.90
31113;DHT22;17763;48.730;9.136;2023-02-08T04:48:00;-2.20;90.20
31113;DHT22;17763;48.730;9.136;2023-02-08T04:50:26;-2.20;90.30
31113;DHT22;17763;48.730;9.136;2023-02-08T04:52:51;-2.20;90.40
31113;DHT22;17763;48.730;9.136;2023-02-08T04:55:17;-2.30;90.60
31113;DHT22;17763;48.730;9.136;2023-02-08T04:57:43;-2.30;90.60
31113;DHT22;17763;48.730;9.136;2023-02-08T05:00:09;-2.30;90.80
31113;DHT22;17763;48.730;9.136;2023-02-08T05:02:35;-2.30;90.90
31113;DHT22;17763;48.730;9.136;2023-02-08T05:05:01;-2.40;91.10
31113;DHT22;17763;48.730;9.136;2023-02-08T05:07:26;-2.40;91.30
31113;DHT22;17763;48.730;9.136;2023-02-08T05:09:52;-2.40;91.50
31113;DHT22;17763;48.730;9.136;2023-02-08T05:12:18;-2.40;91.70
31113;DHT22;17763;48.730;9.136;2023-02-08T05:14:44;-2.50;91.80
31113;DHT22;17763;48.730;9.136;2023-02-08T05:17:10;-2.50;91.80
31113;DHT22;17763;48.730;9.136;2023-02-08T05:19:35;-2.50;92.00
31113;DHT22;17763;48.730;9.136;2023-02-08T05:22:01;-2.50;92.00
31113;DHT22;17763;48.730;9.136;2023-02-08T05:24:27;-2.50;92.10
31113;DHT22;17763;48.730;9.136;2023-02-08T05:26:52;-2.50;92.20
31113;DHT22;17763;48.730;9.136;2023-02-08T05:29:18;-2.50;92.10
31113;DHT22;17763;48.730;9.136;2023-02-08T05:31:44;-2.60;92.10
31113;DHT22;17763;48.730;9.136;2023-02-08T05:34:09;-2.60;92.20
31113;DHT22;17763;48.730;9.136;2023-02-08T05:36:36;-2.60;92.20
31113;DHT22;17763;48.730;9.136;2023-02-08T05:39:03;-2.70;92.20
31113;DHT22;17763;48.730;9.136;2023-02-08T05:41:28;-2.70;92.40
31113;DHT22;17763;48.730;9.136;2023-02-08T05:43:54;-2.70;92.50
31113;DHT22;17763;48.730;9.136;2023-02-08T05:46:20;-2.80;92.70
31113;DHT22;17763;48.730;9.136;2023-02-08T05:48:46;-2.80;92.70
31113;DHT22;17763;48.730;9.136;2023-02-08T05:51:11;-2.80;92.80
31113;DHT22;17763;48.730;9.136;2023-02-08T05:53:37;-2.80;92.90
31113;DHT22;17763;48.730;9.136;2023-02-08T05:56:03;-2.80;93.20
31113;DHT22;17763;48.730;9.136;2023-02-08T05:58:29;-2.80;93.30
31113;DHT22;17763;48.730;9.136;2023-02-08T06:00:55;-2.80;93.30
31113;DHT22;17763;48.730;9.136;2023-02-08T06:03:21;-2.80;93.30
31113;DHT22;17763;48.730;9.136;2023-02-08T06:05:47;-2.80;93.40
31113;DHT22;17763;48.730;9.136;2023-02-08T06:08:13;-2.80;93.30
31113;DHT22;17763;48.730;9.136;2023-02-08T06:10:38;-2.80;93.30
31113;DHT22;17763;48.730;9.136;2023-02-08T06:13:04;-2.80;93.10
31113;DHT22;17763;48.730;9.136;2023-02-08T06:15:30;-2.80;92.90
31113;DHT22;17763;48.730;9.136;2023-02-08T06:17:56;-2.70;93.00
31113;DHT22;17763;48.730;9.136;2023-02-08T06:20:21;-2.70;93.10
31113;DHT22;17763;48.730;9.136;2023-02-08T06:22:47;-2.70;93.00
31113;DHT22;17763;48.730;9.136;2023-02-08T06:25:13;-2.70;92.80
31113;DHT22;17763;48.730;9.136;2023-02-08T06:27:39;-2.70;92.80
31113;DHT22;17763;48.730;9.136;2023-02-08T06:30:04;-2.70;92.60
31113;DHT22;17763;48.730;9.136;2023-02-08T06:32:30;-2.80;92.60
31113;DHT22;17763;48.730;9.136;2023-02-08T06:34:56;-2.70;92.60
31113;DHT22;17763;48.730;9.136;2023-02-08T06:37:22;-2.80;92.70
31113;DHT22;17763;48.730;9.136;2023-02-08T06:39:47;-2.70;92.70
31113;DHT22;17763;48.730;9.136;2023-02-08T06:42:13;-2.80;92.50
31113;DHT22;17763;48.730;9.136;2023-02-08T06:44:39;-2.80;92.20
31113;DHT22;17763;48.730;9.136;2023-02-08T06:47:05;-2.80;91.90
31113;DHT22;17763;48.730;9.136;2023-02-08T06:49:30;-2.60;91.60
31113;DHT22;17763;48.730;9.136;2023-02-08T06:51:56;-2.70;91.80
31113;DHT22;17763;48.730;9.136;2023-02-08T06:54:22;-2.70;91.60
31113;DHT22;17763;48.730;9.136;2023-02-08T06:56:48;-2.60;91.10
31113;DHT22;17763;48.730;9.136;2023-02-08T06:59:13;-2.70;90.90
31113;DHT22;17763;48.730;9.136;2023-02-08T07:01:39;-2.70;90.50
31113;DHT22;17763;48.730;9.136;2023-02-08T07:04:05;-2.60;90.40
31113;DHT22;17763;48.730;9.136;2023-02-08T07:06:31;-2.60;90.50
31113;DHT22;17763;48.730;9.136;2023-02-08T07:08:56;-2.60;90.40
31113;DHT22;17763;48.730;9.136;2023-02-08T07:11:24;-2.50;90.30
31113;DHT22;17763;48.730;9.136;2023-02-08T07:13:51;-2.50;90.00
31113;DHT22;17763;48.730;9.136;2023-02-08T07:16:18;-2.50;90.00
31113;DHT22;17763;48.730;9.136;2023-02-08T07:18:44;-2.40;89.70
31113;DHT22;17763;48.730;9.136;2023-02-08T07:21:10;-2.50;89.30
31113;DHT22;17763;48.730;9.136;2023-02-08T07:23:39;-2.50;89.40
31113;DHT22;17763;48.730;9.136;2023-02-08T07:26:10;-2.50;88.70
31113;DHT22;17763;48.730;9.136;2023-02-08T07:28:37;-2.50;88.40
31113;DHT22;17763;48.730;9.136;2023-02-08T07:31:07;-2.40;88.70
31113;DHT22;17763;48.730;9.136;2023-02-08T07:33:33;-2.30;88.60
31113;DHT22;17763;48.730;9.136;2023-02-08T07:35:59;-2.30;88.30
31113;DHT22;17763;48.730;9.136;2023-02-08T07:38:25;-2.20;87.90
31113;DHT22;17763;48.730;9.136;2023-02-08T07:40:51;-2.30;87.60
31113;DHT22;17763;48.730;9.136;2023-02-08T07:43:16;-2.20;87.70
31113;DHT22;17763;48.730;9.136;2023-02-08T07:45:43;-2.10;88.50
31113;DHT22;17763;48.730;9.136;2023-02-08T07:48:08;-2.10;88.00
31113;DHT22;17763;48.730;9.136;2023-02-08T07:50:34;-2.00;88.20
31113;DHT22;17763;48.730;9.136;2023-02-08T07:53:00;-2.10;88.70
31113;DHT22;17763;48.730;9.136;2023-02-08T07:55:25;-2.00;89.10
31113;DHT22;17763;48.730;9.136;2023-02-08T07:57:54;-2.00;88.30
31113;DHT22;17763;48.730;9.136;2023-02-08T08:00:20;-2.00;88.80
31113;DHT22;17763;48.730;9.136;2023-02-08T08:02:45;-1.90;89.30
31113;DHT22;17763;48.730;9.136;2023-02-08T08:05:11;-1.90;89.80
31113;DHT22;17763;48.730;9.136;2023-02-08T08:07:37;-1.90;89.50
31113;DHT22;17763;48.730;9.136;2023-02-08T08:10:03;-1.90;89.30
31113;DHT22;17763;48.730;9.136;2023-02-08T08:12:29;-1.80;89.90
31113;DHT22;17763;48.730;9.136;2023-02-08T08:14:55;-1.80;90.10
31113;DHT22;17763;48.730;9.136;2023-02-08T08:17:20;-1.70;90.10
31113;DHT22;17763;48.730;9.136;2023-02-08T08:19:46;-1.80;89.90
31113;DHT22;17763;48.730;9.136;2023-02-08T08:22:12;-1.70;90.00
31113;DHT22;17763;48.730;9.136;2023-02-08T08:24:37;-1.70;89.70
31113;DHT22;17763;48.730;9.136;2023-02-08T08:27:07;-1.60;89.70
31113;DHT22;17763;48.730;9.136;2023-02-08T08:29:34;-1.50;87.60
31113;DHT22;17763;48.730;9.136;2023-02-08T08:32:00;-1.40;87.70
31113;DHT22;17763;48.730;9.136;2023-02-08T08:34:27;-1.40;88.10
31113;DHT22;17763;48.730;9.136;2023-02-08T08:36:56;-1.20;88.00
31113;DHT22;17763;48.730;9.136;2023-02-08T08:39:22;-1.30;87.80
31113;DHT22;17763;48.730;9.136;2023-02-08T08:41:48;-1.20;87.70
31113;DHT22;17763;48.730;9.136;2023-02-08T08:44:14;-1.20;85.10
31113;DHT22;17763;48.730;9.136;2023-02-08T08:46:40;-1.10;81.80
31113;DHT22;17763;48.730;9.136;2023-02-08T08:49:06;-1.10;80.50
31113;DHT22;17763;48.730;9.136;2023-02-08T08:51:32;-1.00;80.20
31113;DHT22;17763;48.730;9.136;2023-02-08T08:54:04;-0.90;79.00
31113;DHT22;17763;48.730;9.136;2023-02-08T08:56:30;-0.80;79.30
31113;DHT22;17763;48.730;9.136;2023-02-08T08:58:56;-0.70;80.40
31113;DHT22;17763;48.730;9.136;2023-02-08T09:01:22;-0.80;79.20
31113;DHT22;17763;48.730;9.136;2023-02-08T09:03:48;-0.60;78.70
31113;DHT22;17763;48.730;9.136;2023-02-08T09:06:13;-0.60;77.10
31113;DHT22;17763;48.730;9.136;2023-02-08T09:08:39;-0.60;77.00
31113;DHT22;17763;48.730;9.136;2023-02-08T09:11:08;-0.50;75.80
31113;DHT22;17763;48.730;9.136;2023-02-08T09:13:35;-0.50;76.30
31113;DHT22;17763;48.730;9.136;2023-02-08T09:16:12;-0.40;76.00
31113;DHT22;17763;48.730;9.136;2023-02-08T09:18:38;-0.30;75.40
31113;DHT22;17763;48.730;9.136;2023-02-08T09:21:09;-0.30;75.10
31113;DHT22;17763;48.730;9.136;2023-02-08T09:23:35;-0.20;75.10
31113;DHT22;17763;48.730;9.136;2023-02-08T09:26:06;-0.20;75.00
31113;DHT22;17763;48.730;9.136;2023-02-08T09:28:32;0.00;74.70
31113;DHT22;17763;48.730;9.136;2023-02-08T09:30:58;-0.10;73.20
31113;DHT22;17763;48.730;9.136;2023-02-08T09:33:26;-0.10;73.30
31113;DHT22;17763;48.730;9.136;2023-02-08T09:35:52;0.00;74.20
31113;DHT22;17763;48.730;9.136;2023-02-08T09:38:18;0.10;74.30
31113;DHT22;17763;48.730;9.136;2023-02-08T09:41:09;0.20;74.00
31113;DHT22;17763;48.730;9.136;2023-02-08T09:46:26;0.30;72.30
31113;DHT22;17763;48.730;9.136;2023-02-08T09:48:55;0.40;72.60
31113;DHT22;17763;48.730;9.136;2023-02-08T09:51:36;0.40;72.00
31113;DHT22;17763;48.730;9.136;2023-02-08T09:54:07;0.40;71.50
31113;DHT22;17763;48.730;9.136;2023-02-08T09:56:35;0.50;71.80
31113;DHT22;17763;48.730;9.136;2023-02-08T09:59:04;0.60;71.70
31113;DHT22;17763;48.730;9.136;2023-02-08T10:01:33;0.50;72.50
31113;DHT22;17763;48.730;9.136;2023-02-08T10:04:18;0.60;72.70
31113;DHT22;17763;48.730;9.136;2023-02-08T10:06:46;0.70;72.90
31113;DHT22;17763;48.730;9.136;2023-02-08T10:09:14;0.70;71.80
31113;DHT22;17763;48.730;9.136;2023-02-08T10:17:49;0.90;70.90
31113;DHT22;17763;48.730;9.136;2023-02-08T10:31:55;1.10;70.50
31113;DHT22;17763;48.730;9.136;2023-02-08T10:34:42;0.90;71.10
31113;DHT22;17763;48.730;9.136;2023-02-08T10:37:24;0.80;71.50
31113;DHT22;17763;48.730;9.136;2023-02-08T10:39:52;0.70;71.60
31113;DHT22;17763;48.730;9.136;2023-02-08T10:42:20;0.70;71.70
31113;DHT22;17763;48.730;9.136;2023-02-08T10:45:17;0.60;71.10
31113;DHT22;17763;48.730;9.136;2023-02-08T10:47:53;0.50;71.60
31113;DHT22;17763;48.730;9.136;2023-02-08T10:50:36;0.40;71.90
31113;DHT22;17763;48.730;9.136;2023-02-08T10:53:05;0.40;72.30
31113;DHT22;17763;48.730;9.136;2023-02-08T10:55:33;0.40;72.60
31113;DHT22;17763;48.730;9.136;2023-02-08T10:58:03;0.40;73.40
31113;DHT22;17763;48.730;9.136;2023-02-08T11:00:40;0.40;74.30
31113;DHT22;17763;48.730;9.136;2023-02-08T11:03:26;0.50;74.00
31113;DHT22;17763;48.730;9.136;2023-02-08T11:05:53;0.60;73.70
31113;DHT22;17763;48.730;9.136;2023-02-08T11:08:22;0.70;73.60
31113;DHT22;17763;48.730;9.136;2023-02-08T11:11:04;0.80;73.20
31113;DHT22;17763;48.730;9.136;2023-02-08T11:13:35;0.90;73.20
31113;DHT22;17763;48.730;9.136;2023-02-08T11:16:05;1.00;72.70
31113;DHT22;17763;48.730;9.136;2023-02-08T11:18:34;1.00;72.80
31113;DHT22;17763;48.730;9.136;2023-02-08T11:21:20;1.10;73.00
31113;DHT22;17763;48.730;9.136;2023-02-08T11:23:50;1.20;72.00
31113;DHT22;17763;48.730;9.136;2023-02-08T11:26:18;1.20;72.30
31113;DHT22;17763;48.730;9.136;2023-02-08T11:29:16;1.40;72.10
31113;DHT22;17763;48.730;9.136;2023-02-08T11:31:56;1.40;70.30
31113;DHT22;17763;48.730;9.136;2023-02-08T11:34:36;1.50;71.50
31113;DHT22;17763;48.730;9.136;2023-02-08T11:37:18;1.50;71.60
31113;DHT22;17763;48.730;9.136;2023-02-08T11:40:14;1.60;71.40
31113;DHT22;17763;48.730;9.136;2023-02-08T11:42:41;1.70;71.10
31113;DHT22;17763;48.730;9.136;2023-02-08T11:47:56;1.80;70.00
31113;DHT22;17763;48.730;9.136;2023-02-08T11:50:36;1.90;69.20
31113;DHT22;17763;48.730;9.136;2023-02-08T11:53:16;2.00;69.40
31113;DHT22;17763;48.730;9.136;2023-02-08T11:56:01;2.10;68.80
31113;DHT22;17763;48.730;9.136;2023-02-08T11:58:27;2.20;68.40
31113;DHT22;17763;48.730;9.136;2023-02-08T12:01:02;2.30;67.80
31113;DHT22;17763;48.730;9.136;2023-02-08T12:03:36;2.40;67.30
31113;DHT22;17763;48.730;9.136;2023-02-08T12:06:42;2.40;67.10
31113;DHT22;17763;48.730;9.136;2023-02-08T12:11:45;2.60;67.00
31113;DHT22;17763;48.730;9.136;2023-02-08T12:14:28;2.70;66.80
31113;DHT22;17763;48.730;9.136;2023-02-08T12:22:33;2.80;66.20
31113;DHT22;17763;48.730;9.136;2023-02-08T12:25:19;2.90;66.10
31113;DHT22;17763;48.730;9.136;2023-02-08T12:30:34;3.00;66.10
31113;DHT22;17763;48.730;9.136;2023-02-08T12:42:15;3.10;66.10
31113;DHT22;17763;48.730;9.136;2023-02-08T12:47:38;3.20;66.30
31113;DHT22;17763;48.730;9.136;2023-02-08T12:53:29;3.30;66.20
31113;DHT22;17763;48.730;9.136;2023-02-08T12:56:06;3.30;65.60
31113;DHT22;17763;48.730;9.136;2023-02-08T12:58:52;3.40;65.40
31113;DHT22;17763;48.730;9.136;2023-02-08T13:01:40;3.40;64.90
31113;DHT22;17763;48.730;9.136;2023-02-08T13:04:19;3.40;65.20
31113;DHT22;17763;48.730;9.136;2023-02-08T13:06:53;3.40;65.40
31113;DHT22;17763;48.730;9.136;2023-02-08T13:11:59;3.50;64.90
31113;DHT22;17763;48.730;9.136;2023-02-08T13:14:37;3.50;65.20
31113;DHT22;17763;48.730;9.136;2023-02-08T13:17:29;3.60;65.10
31113;DHT22;17763;48.730;9.136;2023-02-08T13:22:46;3.60;64.90
31113;DHT22;17763;48.730;9.136;2023-02-08T13:25:23;3.60;65.00
31113;DHT22;17763;48.730;9.136;2023-02-08T13:27:51;3.70;65.40
31113;DHT22;17763;48.730;9.136;2023-02-08T13:30:21;3.70;65.60
31113;DHT22;17763;48.730;9.136;2023-02-08T13:32:48;3.80;65.50
31113;DHT22;17763;48.730;9.136;2023-02-08T13:35:18;3.80;65.20
31113;DHT22;17763;48.730;9.136;2023-02-08T13:38:04;3.90;65.30
31113;DHT22;17763;48.730;9.136;2023-02-08T13:40:34;4.10;64.90
31113;DHT22;17763;48.730;9.136;2023-02-08T13:43:06;4.10;64.70
31113;DHT22;17763;48.730;9.136;2023-02-08T13:45:42;4.20;64.60
31113;DHT22;17763;48.730;9.136;2023-02-08T13:48:11;4.30;64.70
31113;DHT22;17763;48.730;9.136;2023-02-08T13:50:50;4.30;64.10
31113;DHT22;17763;48.730;9.136;2023-02-08T13:54:03;4.40;64.40
31113;DHT22;17763;48.730;9.136;2023-02-08T13:56:07;4.40;64.30
31113;DHT22;17763;48.730;9.136;2023-02-08T14:01:07;4.50;64.30
31113;DHT22;17763;48.730;9.136;2023-02-08T14:03:40;4.40;64.50
31113;DHT22;17763;48.730;9.136;2023-02-08T14:13:55;4.60;64.50
31113;DHT22;17763;48.730;9.136;2023-02-08T14:18:54;4.60;64.30
31113;DHT22;17763;48.730;9.136;2023-02-08T14:21:47;4.60;64.40
31113;DHT22;17763;48.730;9.136;2023-02-08T14:24:26;4.60;64.50
31113;DHT22;17763;48.730;9.136;2023-02-08T14:32:36;4.60;63.80
31113;DHT22;17763;48.730;9.136;2023-02-08T14:35:07;4.60;63.50
31113;DHT22;17763;48.730;9.136;2023-02-08T14:37:35;4.50;63.80
31113;DHT22;17763;48.730;9.136;2023-02-08T14:45:41;4.50;64.20
31113;DHT22;17763;48.730;9.136;2023-02-08T14:48:42;4.60;64.50
31113;DHT22;17763;48.730;9.136;2023-02-08T14:56:24;4.70;64.30
31113;DHT22;17763;48.730;9.136;2023-02-08T14:59:15;4.80;64.50
31113;DHT22;17763;48.730;9.136;2023-02-08T15:01:43;4.90;64.60
31113;DHT22;17763;48.730;9.136;2023-02-08T15:04:10;5.00;64.10
31113;DHT22;17763;48.730;9.136;2023-02-08T15:09:42;5.20;63.90
31113;DHT22;17763;48.730;9.136;2023-02-08T15:12:24;5.30;63.50
31113;DHT22;17763;48.730;9.136;2023-02-08T15:14:53;5.40;63.20
31113;DHT22;17763;48.730;9.136;2023-02-08T15:17:44;5.40;62.90
31113;DHT22;17763;48.730;9.136;2023-02-08T15:20:31;5.40;62.40
31113;DHT22;17763;48.730;9.136;2023-02-08T15:25:35;5.30;62.70
31113;DHT22;17763;48.730;9.136;2023-02-08T15:28:21;5.30;62.20
31113;DHT22;17763;48.730;9.136;2023-02-08T15:31:13;5.20;62.30
31113;DHT22;17763;48.730;9.136;2023-02-08T15:33:40;5.20;62.80
31113;DHT22;17763;48.730;9.136;2023-02-08T15:38:50;5.10;62.70
31113;DHT22;17763;48.730;9.136;2023-02-08T15:41:28;4.90;62.80
31113;DHT22;17763;48.730;9.136;2023-02-08T15:44:20;4.80;63.00
31113;DHT22;17763;48.730;9.136;2023-02-08T15:46:47;4.60;62.80
31113;DHT22;17763;48.730;9.136;2023-02-08T15:49:21;4.40;63.10
31113;DHT22;17763;48.730;9.136;2023-02-08T15:51:53;4.30;63.10
31113;DHT22;17763;48.730;9.136;2023-02-08T15:54:24;4.20;63.70
31113;DHT22;17763;48.730;9.136;2023-02-08T15:56:56;4.10;64.10
31113;DHT22;17763;48.730;9.136;2023-02-08T15:59:28;4.00;64.10
31113;DHT22;17763;48.730;9.136;2023-02-08T16:01:56;3.90;64.00
31113;DHT22;17763;48.730;9.136;2023-02-08T16:04:23;3.80;64.20
31113;DHT22;17763;48.730;9.136;2023-02-08T16:06:52;3.70;63.70
31113;DHT22;17763;48.730;9.136;2023-02-08T16:09:24;3.60;63.70
31113;DHT22;17763;48.730;9.136;2023-02-08T16:12:01;3.50;64.00
31113;DHT22;17763;48.730;9.136;2023-02-08T16:14:28;3.40;64.30
31113;DHT22;17763;48.730;9.136;2023-02-08T16:16:57;3.30;64.50
31113;DHT22;17763;48.730;9.136;2023-02-08T16:19:26;3.20;64.70
31113;DHT22;17763;48.730;9.136;2023-02-08T16:22:18;3.20;64.70
31113;DHT22;17763;48.730;9.136;2023-02-08T16:24:47;3.10;65.10
31113;DHT22;17763;48.730;9.136;2023-02-08T16:27:26;3.00;65.10
31113;DHT22;17763;48.730;9.136;2023-02-08T16:29:54;3.00;65.20
31113;DHT22;17763;48.730;9.136;2023-02-08T16:32:24;2.90;65.50
31113;DHT22;17763;48.730;9.136;2023-02-08T16:34:54;2.80;65.70
31113;DHT22;17763;48.730;9.136;2023-02-08T16:37:30;2.80;65.80
31113;DHT22;17763;48.730;9.136;2023-02-08T16:42:44;2.60;66.40
31113;DHT22;17763;48.730;9.136;2023-02-08T16:45:18;2.60;66.70
31113;DHT22;17763;48.730;9.136;2023-02-08T16:47:53;2.50;66.90
31113;DHT22;17763;48.730;9.136;2023-02-08T16:50:21;2.50;67.00
31113;DHT22;17763;48.730;9.136;2023-02-08T16:52:51;2.40;67.50
31113;DHT22;17763;48.730;9.136;2023-02-08T16:55:23;2.40;68.00
31113;DHT22;17763;48.730;9.136;2023-02-08T16:57:54;2.30;67.90
31113;DHT22;17763;48.730;9.136;2023-02-08T17:00:30;2.30;68.00
31113;DHT22;17763;48.730;9.136;2023-02-08T17:02:58;2.20;68.10
31113;DHT22;17763;48.730;9.136;2023-02-08T17:05:30;2.10;68.60
31113;DHT22;17763;48.730;9.136;2023-02-08T17:08:01;2.10;68.60
31113;DHT22;17763;48.730;9.136;2023-02-08T17:10:31;2.10;68.70
31113;DHT22;17763;48.730;9.136;2023-02-08T17:12:58;2.10;68.80
31113;DHT22;17763;48.730;9.136;2023-02-08T17:15:25;2.00;68.90
31113;DHT22;17763;48.730;9.136;2023-02-08T17:17:52;2.00;69.00
31113;DHT22;17763;48.730;9.136;2023-02-08T17:20:33;2.00;69.00
31113;DHT22;17763;48.730;9.136;2023-02-08T17:23:03;2.00;69.20
31113;DHT22;17763;48.730;9.136;2023-02-08T17:25:30;1.90;69.60
31113;DHT22;17763;48.730;9.136;2023-02-08T17:28:05;1.90;69.70
31113;DHT22;17763;48.730;9.136;2023-02-08T17:30:40;1.90;70.00
31113;DHT22;17763;48.730;9.136;2023-02-08T17:33:06;1.80;70.10
31113;DHT22;17763;48.730;9.136;2023-02-08T17:35:33;1.80;70.50
31113;DHT22;17763;48.730;9.136;2023-02-08T17:38:05;1.70;70.90
31113;DHT22;17763;48.730;9.136;2023-02-08T17:40:33;1.80;71.10
31113;DHT22;17763;48.730;9.136;2023-02-08T17:42:59;1.70;71.10
31113;DHT22;17763;48.730;9.136;2023-02-08T17:45:26;1.60;70.90
31113;DHT22;17763;48.730;9.136;2023-02-08T17:47:52;1.70;71.10
31113;DHT22;17763;48.730;9.136;2023-02-08T17:50:19;1.70;71.10
31113;DHT22;17763;48.730;9.136;2023-02-08T17:52:46;1.60;71.00
31113;DHT22;17763;48.730;9.136;2023-02-08T17:55:14;1.60;71.10
31113;DHT22;17763;48.730;9.136;2023-02-08T17:57:41;1.60;71.50
31113;DHT22;17763;48.730;9.136;2023-02-08T18:00:19;1.50;71.80
31113;DHT22;17763;48.730;9.136;2023-02-08T18:02:49;1.50;72.00
31113;DHT22;17763;48.730;9.136;2023-02-08T18:05:18;1.60;72.20
31113;DHT22;17763;48.730;9.136;2023-02-08T18:07:43;1.50;72.10
31113;DHT22;17763;48.730;9.136;2023-02-08T18:10:10;1.50;72.20
31113;DHT22;17763;48.730;9.136;2023-02-08T18:12:39;1.50;72.40